Longview, Illinois
Current Conditions -  °F | °C
As of 12:53 AM on Saturday 29 Nov 2014 (Local Time) from KCMI Reporting Station
Clear Clear  
Wind Chill: 25°   Ceiling: Unl
Heat Index: 33°   Visibility: 10mi
Dew Point: 29°   Wind: 10mph
Humidity: 85%   Direction: 160°SSE
Pressure: 29.89"   Gusts: NA
Location:  39.89°N, 88.07°W
Report Text: KCMI 290653Z AUTO 16009KT 10SM CLR 01/M02 A2989 RMK AO2 SLP129 T00061017 $
Loading
Personal Weather Stations






























Interactive Weather Map New forecast layout! Learn more

10-Day Weather Forecast

Advertisements
Track Severe Weather on mobile